Time,TemperatureF,DewpointF,PressureIn,WindDirection,WindDirectionDegrees,WindSpeedMPH,WindSpeedGustMPH,Humidity,HourlyPrecipIn,Conditions,Clouds,dailyrainin,SoftwareType,DateUTC
2013-02-24 00:00:00,33.1,31.6,29.97,ESE,112,0.0,1.0,94,0.00,,---,0.01,VWS V14.01,2013-02-24 04:00:00,
2013-02-24 00:30:00,33.1,31.8,29.96,ESE,112,0.0,0.0,95,0.00,,---,0.01,VWS V14.01,2013-02-24 04:30:00,
2013-02-24 01:00:00,33.1,31.8,29.94,ESE,112,0.0,1.0,95,0.00,,---,0.00,VWS V14.01,2013-02-24 05:00:00,
2013-02-24 01:30:00,33.0,31.7,29.93,ESE,112,0.0,0.0,95,0.00,,---,0.00,VWS V14.01,2013-02-24 05:30:00,
2013-02-24 02:00:00,33.1,31.8,29.91,ESE,112,0.0,1.0,95,0.00,,---,0.00,VWS V14.01,2013-02-24 06:00:00,
2013-02-24 02:30:00,33.0,31.7,29.91,ESE,112,0.0,0.0,95,0.00,,---,0.00,VWS V14.01,2013-02-24 06:30:00,
2013-02-24 03:00:00,33.2,31.9,29.89,ESE,112,0.0,0.0,95,0.00,,---,0.00,VWS V14.01,2013-02-24 07:00:00,
2013-02-24 03:30:00,33.3,32.0,29.87,ESE,112,0.0,1.0,95,0.01,,---,0.01,VWS V14.01,2013-02-24 07:30:00,
2013-02-24 04:00:00,34.1,33.1,29.85,ENE,68,0.0,3.0,96,0.02,,---,0.02,VWS V14.01,2013-02-24 08:00:00,
2013-02-24 04:30:00,34.8,33.8,29.84,NE,45,0.0,3.0,96,0.05,,---,0.05,VWS V14.01,2013-02-24 08:30:00,
2013-02-24 05:00:00,35.2,34.2,29.83,ENE,68,0.0,4.0,96,0.08,,---,0.09,VWS V14.01,2013-02-24 09:00:00,
2013-02-24 05:30:00,35.2,34.2,29.83,North,0,0.0,5.0,96,0.09,,---,0.11,VWS V14.01,2013-02-24 09:30:00,
2013-02-24 06:00:00,35.2,34.2,29.82,ENE,68,0.0,3.0,96,0.09,,---,0.14,VWS V14.01,2013-02-24 10:00:00,
2013-02-24 06:30:00,35.1,34.1,29.82,ENE,68,0.0,2.0,96,0.08,,---,0.17,VWS V14.01,2013-02-24 10:30:00,
2013-02-24 07:00:00,34.7,33.7,29.82,ENE,68,0.0,3.0,96,0.08,,---,0.19,VWS V14.01,2013-02-24 11:00:00,
2013-02-24 07:30:00,34.0,33.0,29.82,North,0,0.0,3.0,96,0.06,,---,0.20,VWS V14.01,2013-02-24 11:30:00,
2013-02-24 08:00:00,33.5,32.5,29.82,NNE,22,1.0,5.0,96,0.04,,---,0.21,VWS V14.01,2013-02-24 12:00:00,
2013-02-24 08:30:00,33.5,32.5,29.82,North,0,1.0,3.0,96,0.02,,---,0.21,VWS V14.01,2013-02-24 12:30:00,
2013-02-24 09:00:00,33.5,32.5,29.80,North,0,1.0,0.0,96,0.01,,---,0.21,VWS V14.01,2013-02-24 13:00:00,
2013-02-24 09:30:00,33.5,32.5,29.79,North,0,1.0,0.0,96,0.00,,---,0.21,VWS V14.01,2013-02-24 13:30:00,
2013-02-24 10:00:00,33.1,32.1,29.79,North,0,1.0,4.0,96,0.01,,---,0.22,VWS V14.01,2013-02-24 14:00:00,
2013-02-24 10:30:00,33.1,32.1,29.78,North,0,0.0,6.0,96,0.01,,---,0.22,VWS V14.01,2013-02-24 14:30:00,
2013-02-24 11:00:00,33.2,32.2,29.77,NNE,22,1.0,5.0,96,0.02,,---,0.23,VWS V14.01,2013-02-24 15:00:00,
2013-02-24 11:30:00,33.2,32.2,29.76,North,0,0.0,4.0,96,0.01,,---,0.23,VWS V14.01,2013-02-24 15:30:00,
2013-02-24 12:00:00,33.2,32.2,29.75,North,0,1.0,5.0,96,0.02,,---,0.24,VWS V14.01,2013-02-24 16:00:00,
2013-02-24 12:30:00,33.2,32.2,29.75,North,0,1.0,5.0,96,0.01,,---,0.24,VWS V14.01,2013-02-24 16:30:00,
2013-02-24 13:00:00,33.1,32.1,29.74,North,0,0.0,4.0,96,0.01,,---,0.24,VWS V14.01,2013-02-24 17:00:00,
2013-02-24 13:30:00,33.2,32.2,29.73,NNE,22,0.0,3.0,96,0.01,,---,0.25,VWS V14.01,2013-02-24 17:30:00,
2013-02-24 14:00:00,33.2,32.2,29.73,NNW,338,0.0,3.0,96,0.02,,---,0.26,VWS V14.01,2013-02-24 18:00:00,
2013-02-24 14:30:00,33.2,32.2,29.72,North,0,0.0,2.0,96,0.03,,---,0.27,VWS V14.01,2013-02-24 18:30:00,
2013-02-24 15:00:00,33.1,32.1,29.72,NNE,22,0.0,2.0,96,0.03,,---,0.28,VWS V14.01,2013-02-24 19:00:00,
2013-02-24 15:30:00,33.0,32.0,29.72,NNE,22,0.0,5.0,96,0.03,,---,0.29,VWS V14.01,2013-02-24 19:30:00,
2013-02-24 16:00:00,33.0,32.0,29.72,North,0,1.0,5.0,96,0.03,,---,0.30,VWS V14.01,2013-02-24 20:00:00,
2013-02-24 16:30:00,32.9,31.9,29.74,North,0,1.0,7.0,96,0.02,,---,0.30,VWS V14.01,2013-02-24 20:30:00,
2013-02-24 17:00:00,32.9,31.6,29.74,North,0,1.0,4.0,95,0.02,,---,0.31,VWS V14.01,2013-02-24 21:00:00,
2013-02-24 17:30:00,32.6,31.3,29.75,North,0,1.0,4.0,95,0.02,,---,0.32,VWS V14.01,2013-02-24 21:30:00,
2013-02-24 18:00:00,32.4,31.1,29.76,NNE,22,1.0,3.0,95,0.02,,---,0.32,VWS V14.01,2013-02-24 22:00:00,
2013-02-24 18:30:00,32.4,31.4,29.77,North,0,0.0,3.0,96,0.02,,---,0.33,VWS V14.01,2013-02-24 22:30:00,
2013-02-24 19:00:00,32.2,31.2,29.78,NW,315,0.0,4.0,96,0.01,,---,0.33,VWS V14.01,2013-02-24 23:00:00,
2013-02-24 19:30:00,31.8,30.5,29.79,NE,45,0.0,5.0,95,0.01,,---,0.33,VWS V14.01,2013-02-24 23:30:00,
2013-02-24 20:00:00,31.8,30.5,29.81,WNW,292,0.0,5.0,95,0.00,,---,0.33,VWS V14.01,2013-02-25 00:00:00,
2013-02-24 20:30:00,31.4,30.4,29.82,NW,315,0.0,4.0,96,0.00,,---,0.33,VWS V14.01,2013-02-25 00:30:00,
2013-02-24 21:00:00,31.1,29.8,29.83,NNE,22,0.0,2.0,95,0.00,,---,0.33,VWS V14.01,2013-02-25 01:00:00,
2013-02-24 21:30:00,31.0,29.7,29.84,WNW,292,0.0,1.0,95,0.00,,---,0.33,VWS V14.01,2013-02-25 01:30:00,
2013-02-24 22:00:00,31.1,30.1,29.85,NNE,22,0.0,2.0,96,0.00,,---,0.33,VWS V14.01,2013-02-25 02:00:00,
2013-02-24 22:30:00,30.9,29.9,29.86,NE,45,0.0,2.0,96,0.00,,---,0.33,VWS V14.01,2013-02-25 02:30:00,
2013-02-24 23:00:00,30.7,29.7,29.87,NNW,338,0.0,2.0,96,0.00,,---,0.33,VWS V14.01,2013-02-25 03:00:00,
2013-02-24 23:37:00,30.7,29.7,29.87,NNW,331,0.0,2.0,96,0.00,,---,0.33,VWS V14.01,2013-02-25 03:37:00,
2013-02-24 23:43:00,30.7,29.4,29.87,NNW,331,0.0,2.0,95,0.00,,---,0.33,VWS V14.01,2013-02-25 03:43:00,
2013-02-24 23:49:00,30.7,29.7,29.88,NNW,331,0.0,2.0,96,0.00,,---,0.33,VWS V14.01,2013-02-25 03:49:00,
2013-02-24 23:55:00,30.7,29.7,29.87,NNW,331,0.0,2.0,96,0.00,,---,0.33,VWS V14.01,2013-02-25 03:55:00,